GAS weather

Gallia Meigs Regional Airport
Gallipolis, Ohio, United States

Public forecast

Using degrees Fahrenheit for public forecast. Weather courtesy of forecast.io.

Closest aviation weather report (METAR) to Gallia Meigs Regional Airport

Report is more than 6 hours old.

Closest report is Mason County Airport, 5.7 nm (10.6 km) NNE. Retrieved 2019/12/08 15:35 UTC (13 hours ago):

K3I2 081535Z AUTO 18003KT 10SM SCT060 A3026 RMK AO2 PNO

Closest aviation forecast (TAF) to Gallia Meigs Regional Airport

Closest forecast is Tri-State/Milton J. Ferguson Field, 33.6 nm (62.3 km) SSW. Retrieved 2019-12-09 00:24 UTC (4 hours ago):

TAF KHTS 082321Z 0900/0924 15003KT P6SM OVC070 FM090500 16005KT P6SM VCSH OVC045 FM090800 16005KT P6SM -SHRA OVC035 WS020/20040KT FM091400 19011G18KT P6SM OVC035 FM092000 20012G21KT P6SM OVC035